Time;durP1;ratioP1;P1;durP2;ratioP2;P2;SDS_P1;SDS_P2;PMS_P1;PMS_P2;Temp;Humidity;BMP_temperature;BMP_pressure;BME280_temperature;BME280_humidity;BME280_pressure;Samples;Min_cycle;Max_cycle;Signal;HPM_P1;HPM_P2
2022/09/15 00:01:33;;;;;;;12.07;6.65;;;;;;;19.92;100.00;99016.31;5114362;28;20049;-72
2022/09/15 00:04:02;;;;;;;8.85;6.45;;;;;;;19.91;100.00;99016.50;5114959;28;20107;-73
2022/09/15 00:06:30;;;;;;;10.10;6.82;;;;;;;19.89;100.00;99013.97;5113121;28;20090;-75
2022/09/15 00:08:58;;;;;;;9.57;6.22;;;;;;;19.85;100.00;99001.81;5114748;28;20039;-75
2022/09/15 00:11:29;;;;;;;9.45;6.55;;;;;;;19.83;100.00;98981.38;5114425;28;20063;-73
2022/09/15 00:14:02;;;;;;;11.95;7.03;;;;;;;19.80;100.00;98988.00;5114656;28;20048;-73
2022/09/15 00:16:31;;;;;;;;;;;;;;;19.85;100.00;98980.16;5114971;28;20039;-72
2022/09/15 00:19:01;;;;;;;12.93;6.80;;;;;;;19.92;100.00;98943.25;5114634;28;20333;-72
2022/09/15 00:21:33;;;;;;;10.75;7.43;;;;;;;19.92;100.00;98909.94;5114184;28;20108;-72
2022/09/15 00:24:02;;;;;;;10.00;7.93;;;;;;;19.97;100.00;98926.44;5114247;28;20526;-71
2022/09/15 00:26:31;;;;;;;11.55;7.68;;;;;;;19.91;100.00;98936.16;5114389;28;20130;-72
2022/09/15 00:29:01;;;;;;;15.77;8.00;;;;;;;19.82;100.00;98933.72;5114348;28;20114;-72
2022/09/15 00:31:31;;;;;;;11.63;8.40;;;;;;;19.78;100.00;98948.59;5114089;28;20052;-72
2022/09/15 00:34:03;;;;;;;13.43;9.18;;;;;;;19.71;100.00;98962.03;5114335;28;20373;-72
2022/09/15 00:36:32;;;;;;;13.20;9.30;;;;;;;19.72;100.00;98998.88;5114180;28;20204;-72
2022/09/15 00:39:01;;;;;;;12.02;8.90;;;;;;;19.69;100.00;98999.25;5113958;28;20385;-73
2022/09/15 00:41:30;;;;;;;11.40;8.23;;;;;;;19.66;100.00;99015.84;5113857;28;20052;-72
2022/09/15 00:44:01;;;;;;;11.45;7.78;;;;;;;19.61;100.00;99027.22;5113694;28;20044;-72
2022/09/15 00:46:32;;;;;;;12.43;7.50;;;;;;;19.58;100.00;99032.13;5113521;28;20097;-72
2022/09/15 00:49:07;;;;;;;12.07;6.78;;;;;;;19.59;100.00;99047.31;5112231;28;20055;-72
2022/09/15 00:51:40;;;;;;;9.75;6.93;;;;;;;19.64;100.00;99058.47;5113573;28;20131;-72
2022/09/15 00:54:12;;;;;;;;;;;;;;;19.61;100.00;99056.97;5114358;28;20050;-72
2022/09/15 00:56:48;;;;;;;11.38;6.53;;;;;;;19.62;100.00;99060.50;5113695;28;19923;-72
2022/09/15 00:59:20;;;;;;;8.82;5.60;;;;;;;19.70;100.00;99063.16;5113379;28;20046;-72
2022/09/15 01:01:55;;;;;;;8.40;5.00;;;;;;;19.80;100.00;99052.94;5113890;28;20044;-72
2022/09/15 01:04:25;;;;;;;9.20;4.93;;;;;;;19.91;100.00;99054.38;5113235;28;20044;-74
2022/09/15 01:07:01;;;;;;;8.52;4.60;;;;;;;19.99;100.00;99057.88;5112184;28;20059;-74
2022/09/15 01:09:36;;;;;;;7.88;4.47;;;;;;;20.03;100.00;99066.47;5113165;28;20061;-74
2022/09/15 01:12:05;;;;;;;10.20;4.68;;;;;;;20.01;100.00;99061.22;5113468;28;20453;-74
2022/09/15 01:14:33;;;;;;;7.78;4.53;;;;;;;19.99;100.00;99075.97;5112995;28;20051;-75
2022/09/15 01:17:07;;;;;;;6.28;4.10;;;;;;;20.07;100.00;99080.47;5113677;28;20400;-74
2022/09/15 01:20:22;;;;;;;6.25;3.92;;;;;;;20.03;100.00;99063.75;5113721;28;20039;-74
2022/09/15 01:23:10;;;;;;;7.03;3.72;;;;;;;19.97;100.00;99054.47;5114814;28;20524;-77
2022/09/15 01:26:05;;;;;;;8.18;4.05;;;;;;;19.99;100.00;99062.44;5113769;28;20043;-72
2022/09/15 01:28:56;;;;;;;9.00;4.00;;;;;;;19.94;100.00;99065.69;5113112;28;20394;-72
2022/09/15 01:31:33;;;;;;;6.68;3.92;;;;;;;19.95;100.00;99051.13;5112688;28;20114;-72
2022/09/15 01:34:07;;;;;;;6.13;4.25;;;;;;;19.84;100.00;99054.25;5112949;28;20092;-72
2022/09/15 01:36:41;;;;;;;7.32;4.22;;;;;;;19.85;100.00;99061.34;5111355;28;20059;-71
2022/09/15 01:39:16;;;;;;;8.32;4.30;;;;;;;19.81;100.00;99046.50;5111466;28;20047;-71
2022/09/15 01:41:48;;;;;;;5.65;4.30;;;;;;;19.78;100.00;99041.44;5112841;28;20075;-71
2022/09/15 01:44:22;;;;;;;5.10;4.15;;;;;;;19.73;100.00;99051.97;5112798;28;20138;-72
2022/09/15 01:46:55;;;;;;;7.57;4.40;;;;;;;19.75;100.00;99054.50;5112141;28;20127;-72
2022/09/15 01:49:27;;;;;;;;;;;;;;;19.77;100.00;99058.69;5112813;28;20043;-72
2022/09/15 01:51:55;;;;;;;7.40;4.45;;;;;;;19.73;100.00;99063.63;5112900;28;19919;-72
2022/09/15 01:54:28;;;;;;;7.15;4.35;;;;;;;19.70;100.00;99063.16;5112261;28;20100;-72
2022/09/15 01:56:57;;;;;;;6.07;3.63;;;;;;;19.69;100.00;99061.47;5112740;28;20503;-72
2022/09/15 01:59:25;;;;;;;6.85;4.20;;;;;;;19.69;100.00;99061.47;5112326;28;20126;-72
2022/09/15 02:02:00;;;;;;;6.15;3.83;;;;;;;19.69;100.00;99056.06;5112612;28;20135;-72
2022/09/15 02:04:37;;;;;;;6.22;3.80;;;;;;;19.67;100.00;99069.75;5112198;28;20071;-72
2022/09/15 02:07:13;;;;;;;7.05;4.40;;;;;;;19.65;100.00;99060.97;5111053;28;20047;-72
2022/09/15 02:09:48;;;;;;;7.22;4.07;;;;;;;19.63;100.00;99067.59;5112557;28;20051;-72
2022/09/15 02:12:20;;;;;;;6.82;3.72;;;;;;;19.63;100.00;99064.91;5112102;28;20058;-72
2022/09/15 02:14:56;;;;;;;6.25;3.92;;;;;;;19.62;100.00;99066.75;5111200;28;20245;-74
2022/09/15 02:17:34;;;;;;;5.72;3.75;;;;;;;19.60;100.00;99065.25;5112252;28;20043;-73
2022/09/15 02:20:14;;;;;;;6.65;4.03;;;;;;;19.57;100.00;99052.91;5112547;28;20067;-74
2022/09/15 02:22:48;;;;;;;7.15;3.78;;;;;;;19.54;100.00;99055.09;5112235;28;20122;-72
2022/09/15 02:25:21;;;;;;;8.20;4.32;;;;;;;19.59;100.00;99060.84;5110458;28;20123;-73
2022/09/15 02:27:51;;;;;;;;;;;;;;;19.60;100.00;99060.69;5112874;28;20391;-70
2022/09/15 02:30:21;;;;;;;4.95;3.20;;;;;;;19.59;100.00;99060.84;5112023;28;20316;-72
2022/09/15 02:32:56;;;;;;;6.70;3.55;;;;;;;19.63;100.00;99059.47;5112064;28;20071;-72
2022/09/15 02:35:27;;;;;;;5.22;3.38;;;;;;;19.63;100.00;99062.19;5111609;28;20464;-72
2022/09/15 02:37:56;;;;;;;5.90;2.95;;;;;;;19.63;100.00;99057.63;5111960;28;20039;-72
2022/09/15 02:40:24;;;;;;;5.68;2.80;;;;;;;19.67;100.00;99055.38;5111568;28;20062;-72
2022/09/15 02:42:55;;;;;;;4.22;2.80;;;;;;;19.78;100.00;99065.78;5110403;28;20485;-72
2022/09/15 02:45:25;;;;;;;5.30;2.97;;;;;;;19.71;100.00;99075.66;5111600;28;20156;-72
2022/09/15 02:47:55;;;;;;;5.30;2.63;;;;;;;19.74;100.00;99067.19;5111949;28;20492;-72
2022/09/15 02:50:25;;;;;;;6.38;2.83;;;;;;;19.74;100.00;99069.88;5112035;28;20124;-72
2022/09/15 02:52:54;;;;;;;4.07;2.55;;;;;;;19.66;100.00;99070.78;5110409;28;20101;-71
2022/09/15 02:55:23;;;;;;;5.18;2.50;;;;;;;19.70;100.00;99068.56;5111699;28;20048;-71
2022/09/15 02:57:51;;;;;;;5.70;2.45;;;;;;;19.70;100.00;99068.56;5112798;28;20043;-71
2022/09/15 03:00:20;;;;;;;5.78;2.90;;;;;;;19.55;100.00;99065.75;5115812;28;20047;-71
2022/09/15 03:02:51;;;;;;;5.07;2.90;;;;;;;19.56;100.00;99066.63;5116044;28;20515;-71
2022/09/15 03:05:23;;;;;;;4.85;2.83;;;;;;;19.53;100.00;99064.25;5115839;28;20047;-73
2022/09/15 03:07:52;;;;;;;4.68;2.17;;;;;;;19.61;100.00;99056.97;5116075;28;20051;-72
2022/09/15 03:10:22;;;;;;;7.07;2.60;;;;;;;19.68;100.00;99062.47;5115528;28;20055;-72
2022/09/15 03:12:52;;;;;;;3.97;2.22;;;;;;;19.63;100.00;99059.47;5115642;28;20044;-72
2022/09/15 03:15:23;;;;;;;4.18;2.33;;;;;;;19.59;100.00;99066.25;5115410;28;20088;-73
2022/09/15 03:17:52;;;;;;;4.80;2.10;;;;;;;19.57;100.00;99068.31;5116037;28;20043;-72
2022/09/15 03:20:26;;;;;;;4.22;2.35;;;;;;;19.53;100.00;99061.53;5115551;28;20115;-72
2022/09/15 03:22:55;;;;;;;5.72;2.70;;;;;;;19.45;100.00;99060.56;5116054;28;20495;-72
2022/09/15 03:25:25;;;;;;;6.38;2.90;;;;;;;19.49;100.00;99062.91;5115032;28;20048;-73
2022/09/15 03:27:54;;;;;;;5.20;2.95;;;;;;;19.46;100.00;99058.69;5115335;27;20114;-73
2022/09/15 03:30:23;;;;;;;5.38;2.70;;;;;;;19.47;100.00;99064.94;5115408;28;20396;-71
2022/09/15 03:32:51;;;;;;;4.20;2.70;;;;;;;19.50;100.00;99067.31;5115507;28;20431;-71
2022/09/15 03:35:19;;;;;;;5.07;2.40;;;;;;;19.70;100.00;99065.88;5115307;28;20044;-72
2022/09/15 03:37:49;;;;;;;5.78;2.40;;;;;;;19.71;100.00;99049.44;5115235;28;20035;-72
2022/09/15 03:40:18;;;;;;;4.07;2.35;;;;;;;19.72;100.00;99066.53;5115474;28;20369;-72
2022/09/15 03:42:47;;;;;;;4.55;2.30;;;;;;;19.64;100.00;99056.59;5115495;28;20040;-72
2022/09/15 03:45:16;;;;;;;6.03;2.38;;;;;;;19.64;100.00;99059.28;5115170;28;20146;-72
2022/09/15 03:47:44;;;;;;;4.72;2.53;;;;;;;19.62;100.00;99060.50;5114917;28;20127;-70
2022/09/15 03:50:13;;;;;;;5.10;2.22;;;;;;;19.67;100.00;99056.22;5115204;28;20078;-70
2022/09/15 03:52:41;;;;;;;4.90;2.58;;;;;;;19.71;100.00;99054.03;5114820;28;20056;-70
2022/09/15 03:55:12;;;;;;;5.95;2.50;;;;;;;19.68;100.00;99054.34;5114990;28;20047;-70
2022/09/15 03:57:40;;;;;;;5.18;2.80;;;;;;;19.62;100.00;99055.94;5114827;28;20051;-70
2022/09/15 04:00:10;;;;;;;4.57;2.47;;;;;;;19.58;100.00;99051.88;5114857;28;20043;-70
2022/09/15 04:02:38;;;;;;;4.43;2.40;;;;;;;19.58;100.00;99060.00;5114484;28;20078;-70
2022/09/15 04:05:08;;;;;;;5.03;2.70;;;;;;;19.58;100.00;99059.16;5114594;28;20048;-70
2022/09/15 04:07:37;;;;;;;6.50;2.80;;;;;;;19.64;100.00;99064.72;5114159;28;20126;-70
2022/09/15 04:10:06;;;;;;;5.25;2.65;;;;;;;19.66;100.00;99065.38;5113778;28;20044;-70
2022/09/15 04:12:37;;;;;;;5.00;2.70;;;;;;;19.64;100.00;99063.88;5114555;28;20054;-70
2022/09/15 04:15:06;;;;;;;5.18;2.50;;;;;;;19.62;100.00;99074.88;5114453;27;20063;-70
2022/09/15 04:17:35;;;;;;;4.95;2.47;;;;;;;19.59;100.00;99085.19;5113930;28;20058;-70
2022/09/15 04:20:03;;;;;;;4.10;2.42;;;;;;;19.53;100.00;99077.78;5114202;28;20053;-70
2022/09/15 04:22:33;;;;;;;4.88;2.60;;;;;;;19.63;100.00;99078.41;5112387;28;20055;-70
2022/09/15 04:25:01;;;;;;;3.50;2.13;;;;;;;19.60;100.00;99062.56;5114330;28;20035;-70
2022/09/15 04:27:33;;;;;;;5.47;2.55;;;;;;;19.55;100.00;99064.91;5113645;28;20453;-70
2022/09/15 04:30:04;;;;;;;4.05;2.50;;;;;;;19.58;100.00;99061.88;5114141;28;20043;-70
2022/09/15 04:32:34;;;;;;;4.85;2.40;;;;;;;19.60;100.00;99062.56;5112252;28;20047;-71
2022/09/15 04:35:04;;;;;;;5.40;2.55;;;;;;;19.63;100.00;99083.81;5112828;28;20052;-71
2022/09/15 04:37:33;;;;;;;4.25;2.20;;;;;;;19.69;100.00;99089.38;5113737;28;20116;-71
2022/09/15 04:40:02;;;;;;;4.70;2.28;;;;;;;19.64;100.00;99102.56;5113933;28;20043;-73
2022/09/15 04:42:31;;;;;;;4.85;2.45;;;;;;;19.77;100.00;99101.97;5113684;28;20039;-72
2022/09/15 04:44:59;;;;;;;5.55;2.45;;;;;;;19.84;100.00;99097.53;5114059;28;20035;-74
2022/09/15 04:47:29;;;;;;;5.90;2.50;;;;;;;19.78;100.00;99098.25;5113676;28;20066;-73
2022/09/15 04:49:58;;;;;;;5.25;2.20;;;;;;;19.87;100.00;99089.06;5114176;28;20047;-72
2022/09/15 04:52:26;;;;;;;5.80;2.38;;;;;;;19.90;100.00;99086.00;5113588;28;20139;-72
2022/09/15 04:54:55;;;;;;;5.82;2.47;;;;;;;20.00;100.00;99080.38;5113972;28;20070;-75
2022/09/15 04:57:23;;;;;;;6.20;2.30;;;;;;;20.09;100.00;99084.69;5113699;28;20092;-75
2022/09/15 04:59:52;;;;;;;4.95;2.63;;;;;;;20.14;100.00;99076.00;5112587;28;20124;-69
2022/09/15 05:02:20;;;;;;;7.57;2.83;;;;;;;20.08;100.00;99068.63;5113566;28;20055;-72
2022/09/15 05:04:51;;;;;;;5.60;2.55;;;;;;;20.19;100.00;99057.38;5113348;28;20115;-72
2022/09/15 05:07:19;;;;;;;5.32;2.83;;;;;;;20.22;100.00;99063.25;5113469;28;20044;-74
2022/09/15 05:09:48;;;;;;;5.00;2.75;;;;;;;20.19;100.00;99060.06;5113529;28;20126;-73
2022/09/15 05:12:16;;;;;;;6.32;3.03;;;;;;;20.22;100.00;99065.13;5113255;28;20089;-72
2022/09/15 05:14:45;;;;;;;6.80;2.88;;;;;;;20.22;100.00;99075.94;5113408;28;20058;-72
2022/09/15 05:17:13;;;;;;;6.88;2.53;;;;;;;20.20;100.00;99086.13;5113409;28;20043;-72
2022/09/15 05:19:41;;;;;;;6.03;2.90;;;;;;;20.22;100.00;99089.47;5112729;28;20373;-72
2022/09/15 05:22:11;;;;;;;4.38;2.42;;;;;;;20.19;100.00;99096.13;5113133;28;20401;-74
2022/09/15 05:24:39;;;;;;;5.25;2.95;;;;;;;20.24;100.00;99111.78;5111387;28;20043;-74
2022/09/15 05:27:08;;;;;;;6.72;2.92;;;;;;;20.28;100.00;99122.09;5113218;28;20521;-74
2022/09/15 05:29:37;;;;;;;5.47;2.58;;;;;;;20.21;100.00;99131.13;5111641;28;20065;-74
2022/09/15 05:32:05;;;;;;;8.73;3.15;;;;;;;20.24;100.00;99122.63;5113399;28;20169;-74
2022/09/15 05:34:34;;;;;;;6.97;3.30;;;;;;;20.20;100.00;99127.56;5112785;28;20385;-74
2022/09/15 05:37:04;;;;;;;8.95;3.10;;;;;;;20.12;100.00;99137.63;5112878;28;20040;-73
2022/09/15 05:39:33;;;;;;;7.88;3.08;;;;;;;20.11;100.00;99141.34;5111293;28;20104;-74
2022/09/15 05:42:02;;;;;;;8.40;3.05;;;;;;;20.09;100.00;99141.53;5112731;28;20050;-72
2022/09/15 05:44:31;;;;;;;8.60;3.40;;;;;;;20.02;100.00;99136.00;5112556;28;20050;-75
2022/09/15 05:46:59;;;;;;;7.85;3.75;;;;;;;20.06;100.00;99144.59;5112347;28;20071;-75
2022/09/15 05:49:28;;;;;;;6.38;2.90;;;;;;;20.10;100.00;99142.38;5112173;28;20075;-85
2022/09/15 05:51:56;;;;;;;6.75;3.03;;;;;;;20.17;100.00;99137.91;5112397;28;20044;-75
2022/09/15 05:54:26;;;;;;;6.10;3.10;;;;;;;20.12;100.00;99145.75;5111170;28;20073;-74
2022/09/15 05:56:55;;;;;;;7.90;3.53;;;;;;;20.12;100.00;99126.78;5111236;28;20411;-74
2022/09/15 05:59:24;;;;;;;5.95;3.22;;;;;;;20.13;100.00;99129.31;5112081;28;20043;-73
2022/09/15 06:01:53;;;;;;;8.10;3.30;;;;;;;20.19;100.00;99127.75;5112115;28;20413;-74
2022/09/15 06:04:21;;;;;;;9.05;3.65;;;;;;;20.38;100.00;99134.56;5112479;28;20388;-73
2022/09/15 06:06:50;;;;;;;8.82;3.08;;;;;;;20.53;100.00;99133.56;5112064;28;20078;-70
2022/09/15 06:09:18;;;;;;;7.88;3.10;;;;;;;20.69;100.00;99123.63;5112547;28;20078;-71
2022/09/15 06:11:47;;;;;;;7.70;3.40;;;;;;;20.76;100.00;99136.25;5111782;28;20059;-72
2022/09/15 06:14:16;;;;;;;6.25;3.00;;;;;;;20.82;100.00;99143.63;5112151;28;20039;-72
2022/09/15 06:16:45;;;;;;;6.68;3.58;;;;;;;21.01;100.00;99144.97;5111755;28;20553;-71
2022/09/15 06:19:14;;;;;;;6.20;3.25;;;;;;;21.08;100.00;99136.94;5112199;28;20153;-72
2022/09/15 06:21:42;;;;;;;7.20;3.20;;;;;;;20.94;100.00;99135.91;5111769;28;20055;-72
2022/09/15 06:24:11;;;;;;;8.63;3.20;;;;;;;20.92;100.00;99137.94;5112034;28;20043;-72
2022/09/15 06:26:40;;;;;;;5.10;3.00;;;;;;;20.95;100.00;99144.88;5110099;28;20066;-71
2022/09/15 06:29:12;;;;;;;6.25;3.20;;;;;;;20.94;100.00;99143.16;5111207;28;20040;-72
2022/09/15 06:31:42;;;;;;;7.63;3.25;;;;;;;20.98;100.00;99161.59;5110584;28;20043;-71
2022/09/15 06:34:11;;;;;;;8.38;3.72;;;;;;;21.01;100.00;99171.22;5110537;28;20043;-71
2022/09/15 06:36:42;;;;;;;8.25;3.25;;;;;;;21.01;100.00;99169.34;5110238;28;20078;-72
2022/09/15 06:39:10;;;;;;;7.15;2.70;;;;;;;21.02;100.00;99168.31;5088701;28;20473;-71
2022/09/15 06:41:39;;;;;;;7.68;3.55;;;;;;;21.12;100.00;99158.06;5090704;28;20162;-71
2022/09/15 06:44:28;;;;;;;9.40;3.25;;;;;;;21.33;100.00;99167.38;5073343;28;20055;-72
2022/09/15 06:46:58;;;;;;;7.55;3.47;;;;;;;21.33;100.00;99168.22;5073362;28;20437;-72
2022/09/15 06:49:27;;;;;;;9.95;3.30;;;;;;;21.40;100.00;99171.00;5091461;28;20449;-72
2022/09/15 06:51:55;;;;;;;5.10;2.70;;;;;;;21.47;100.00;99171.94;5091151;28;20079;-72
2022/09/15 06:54:24;;;;;;;7.75;3.20;;;;;;;21.50;100.00;99178.84;5091466;28;20055;-73
2022/09/15 06:56:52;;;;;;;8.60;3.08;;;;;;;21.53;100.00;99170.34;5091221;28;20051;-72
2022/09/15 06:59:24;;;;;;;6.53;2.90;;;;;;;21.50;100.00;99187.81;5073374;28;20412;-75
2022/09/15 07:01:53;;;;;;;8.23;3.10;;;;;;;21.58;100.00;99190.44;5091099;28;20507;-72
2022/09/15 07:04:23;;;;;;;5.90;2.78;;;;;;;21.53;100.00;99184.75;5090739;28;20079;-75
2022/09/15 07:06:52;;;;;;;5.72;2.97;;;;;;;21.75;100.00;99184.81;5072249;28;20051;-73
2022/09/15 07:09:20;;;;;;;8.20;3.17;;;;;;;21.84;100.00;99178.25;5090857;28;20067;-74
2022/09/15 07:11:49;;;;;;;6.75;3.20;;;;;;;21.81;100.00;99171.34;5072305;28;20127;-73
2022/09/15 07:14:17;;;;;;;8.50;3.30;;;;;;;21.73;100.00;99185.00;5091472;28;20035;-73
2022/09/15 07:16:46;;;;;;;9.32;3.47;;;;;;;21.82;100.00;99196.59;5072894;28;20067;-73
2022/09/15 07:19:14;;;;;;;8.75;3.10;;;;;;;21.99;100.00;99195.31;5093144;28;20123;-73
2022/09/15 07:21:44;;;;;;;6.13;3.10;;;;;;;22.00;100.00;99189.72;5074730;28;20113;-73
2022/09/15 07:24:13;;;;;;;6.38;3.13;;;;;;;22.07;100.00;99194.41;5073483;28;20119;-73
2022/09/15 07:26:42;;;;;;;5.65;2.88;;;;;;;22.03;100.00;99198.53;5072018;28;20060;-73
2022/09/15 07:29:10;;;;;;;11.95;3.22;;;;;;;21.90;100.00;99207.31;5090758;28;20066;-73
2022/09/15 07:31:39;;;;;;;7.75;3.00;;;;;;;21.98;100.00;99205.34;5090812;28;20469;-73
2022/09/15 07:34:08;;;;;;;6.60;2.97;;;;;;;22.20;100.00;99206.28;5090933;28;20090;-73
2022/09/15 07:36:36;;;;;;;7.35;2.90;;;;;;;22.08;100.00;99207.78;5091083;28;20070;-73
2022/09/15 07:39:06;;;;;;;5.32;2.72;;;;;;;22.17;100.00;99212.06;5091209;28;20046;-73
2022/09/15 07:41:35;;;;;;;7.80;2.63;;;;;;;22.20;100.00;99210.88;5091200;28;20048;-81
2022/09/15 07:44:03;;;;;;;5.78;2.70;;;;;;;22.27;100.00;99218.03;5072726;28;20488;-73
2022/09/15 07:46:33;;;;;;;5.35;2.50;;;;;;;22.42;100.00;99219.88;5094589;28;20048;-73
2022/09/15 07:49:02;;;;;;;5.80;2.60;;;;;;;22.55;100.00;99217.28;5076597;28;20063;-73
2022/09/15 07:51:31;;;;;;;7.30;2.45;;;;;;;22.50;100.00;99217.03;5076174;28;20048;-73
2022/09/15 07:54:00;;;;;;;5.07;2.42;;;;;;;22.42;100.00;99223.44;5075794;28;20048;-73
2022/09/15 07:56:30;;;;;;;5.30;2.20;;;;;;;22.37;100.00;99219.59;5094444;28;20044;-74
2022/09/15 07:58:58;;;;;;;6.45;2.58;;;;;;;22.52;100.00;99212.25;5075938;28;20063;-73
2022/09/15 08:01:26;;;;;;;9.10;2.67;;;;;;;22.79;100.00;99216.88;5094576;28;20062;-73
2022/09/15 08:03:56;;;;;;;6.95;2.67;;;;;;;22.96;100.00;99216.63;5076076;28;20055;-73
2022/09/15 08:06:36;;;;;;;5.33;2.20;;;;;;;22.97;100.00;99223.72;5094656;28;20040;-73
2022/09/15 08:09:13;;;;;;;5.07;2.08;;;;;;;22.93;100.00;99225.19;5094490;28;20716;-73
2022/09/15 08:11:44;;;;;;;6.20;2.40;;;;;;;23.03;100.00;99218.34;5094387;28;20492;-74
2022/09/15 08:14:13;;;;;;;6.80;1.98;;;;;;;23.08;100.00;99226.78;5076296;28;20044;-73
2022/09/15 08:16:41;;;;;;;4.78;1.67;;;;;;;23.17;100.00;99234.81;5094110;28;20040;-73
2022/09/15 08:19:09;;;;;;;3.42;1.80;;;;;;;23.38;100.00;99218.41;5094064;28;20172;-73
2022/09/15 08:21:38;;;;;;;4.60;2.08;;;;;;;23.65;100.00;99216.72;5093728;28;20437;-73
2022/09/15 08:24:07;;;;;;;4.68;1.67;;;;;;;23.67;100.00;99226.34;5094054;28;20357;-73
2022/09/15 08:26:37;;;;;;;4.82;1.73;;;;;;;23.69;100.00;99228.88;5093780;28;20093;-73
2022/09/15 08:29:07;;;;;;;5.03;2.10;;;;;;;23.72;100.00;99223.00;5094364;28;20044;-73
2022/09/15 08:31:35;;;;;;;5.60;1.77;;;;;;;23.67;100.00;99214.63;5075509;28;20101;-73
2022/09/15 08:34:05;;;;;;;5.85;1.70;;;;;;;23.78;100.00;99216.78;5075354;28;20082;-73
2022/09/15 08:36:34;;;;;;;5.20;1.80;;;;;;;23.70;100.00;99216.94;5094042;28;20048;-73
2022/09/15 08:39:03;;;;;;;6.00;1.80;;;;;;;23.88;100.00;99214.50;5075206;28;20516;-73
2022/09/15 08:41:35;;;;;;;7.57;2.08;;;;;;;23.97;100.00;99205.13;5075225;28;20120;-73
2022/09/15 08:44:16;;;;;;;4.68;1.63;;;;;;;24.01;100.00;99193.81;5093339;28;20079;-73
2022/09/15 08:46:50;;;;;;;3.83;2.03;;;;;;;24.05;100.00;99197.81;5074480;28;20066;-73
2022/09/15 08:49:24;;;;;;;3.35;1.67;;;;;;;24.17;100.00;99201.63;5092943;28;20040;-73
2022/09/15 08:52:18;;;;;;;4.93;1.75;;;;;;;24.16;100.00;99198.06;5092527;28;20039;-73
2022/09/15 08:54:50;;;;;;;3.83;1.40;;;;;;;24.24;100.00;99199.75;5092565;28;20059;-74
2022/09/15 08:57:22;;;;;;;4.97;1.65;;;;;;;24.30;100.00;99192.63;5092387;28;20069;-72
2022/09/15 08:59:53;;;;;;;3.85;1.38;;;;;;;24.30;100.00;99182.56;5092826;28;20105;-73
2022/09/15 09:03:08;;;;;;;2.65;1.40;;;;;;;24.43;100.00;99179.94;5092761;28;20401;-72
2022/09/15 09:05:47;;;;;;;4.25;1.40;;;;;;;24.57;100.00;99174.47;5074938;28;20072;-72
2022/09/15 09:08:45;;;;;;;2.75;1.40;;;;;;;24.81;100.00;99174.72;5093262;28;20036;-72
2022/09/15 09:11:21;;;;;;;3.45;1.33;;;;;;;24.85;100.00;99164.22;5091027;28;20048;-72
2022/09/15 09:13:59;;;;;;;5.03;1.80;;;;;;;24.95;100.00;99156.44;5092603;28;20051;-72
2022/09/15 09:16:51;;;;;;;4.25;1.70;;;;;;;25.08;100.00;99155.59;5074843;28;20051;-72
2022/09/15 09:19:42;;;;;;;3.95;1.60;;;;;;;24.96;100.00;99149.09;5092920;28;20043;-72
2022/09/15 09:22:13;;;;;;;3.97;1.50;;;;;;;25.00;100.00;99150.34;5074429;28;20079;-72
2022/09/15 09:24:45;;;;;;;3.95;1.40;;;;;;;25.11;100.00;99147.00;5092564;28;20036;-73
2022/09/15 09:27:17;;;;;;;4.75;1.35;;;;;;;25.23;100.00;99147.19;5093115;28;20370;-72
2022/09/15 09:29:48;;;;;;;2.67;1.42;;;;;;;25.14;100.00;99134.81;5092348;28;20044;-72
2022/09/15 09:32:23;;;;;;;2.20;1.30;;;;;;;25.04;100.00;99129.81;5092528;28;20051;-72
2022/09/15 09:34:59;;;;;;;3.80;1.20;;;;;;;25.07;100.00;99135.66;5073889;28;20055;-72
2022/09/15 09:37:28;;;;;;;3.17;1.58;;;;;;;25.20;100.00;99144.91;5092755;28;20113;-72
2022/09/15 09:39:57;;;;;;;4.20;1.30;;;;;;;25.43;100.00;99141.69;5092425;28;20120;-72
2022/09/15 09:42:29;;;;;;;2.30;1.20;;;;;;;25.59;100.00;99133.84;5092689;28;20062;-72
2022/09/15 09:44:58;;;;;;;2.10;1.15;;;;;;;25.56;100.00;99139.72;5073851;28;20080;-73
2022/09/15 09:47:29;;;;;;;2.15;1.20;;;;;;;25.72;100.00;99143.91;5092464;28;20113;-72
2022/09/15 09:49:59;;;;;;;4.22;1.20;;;;;;;25.95;100.00;99137.91;5092012;28;20105;-73
2022/09/15 09:52:35;;;;;;;3.28;1.20;;;;;;;25.92;100.00;99125.53;5073980;28;20058;-72
2022/09/15 09:55:21;;;;;;;3.10;1.10;;;;;;;26.15;99.42;99127.72;5092193;28;20374;-72
2022/09/15 09:57:50;;;;;;;3.42;1.70;;;;;;;26.17;89.22;99124.75;5091899;28;20040;-73
2022/09/15 10:00:32;;;;;;;3.45;1.35;;;;;;;26.24;67.83;99114.59;5092240;28;20503;-72
2022/09/15 10:03:11;;;;;;;3.97;1.40;;;;;;;26.28;64.63;99115.00;5091792;28;20085;-72
2022/09/15 10:05:40;;;;;;;4.78;1.73;;;;;;;26.42;60.38;99105.66;5092253;28;20123;-73
2022/09/15 10:08:15;;;;;;;2.97;1.25;;;;;;;26.38;60.08;99109.91;5073016;28;20492;-72
2022/09/15 10:10:51;;;;;;;2.13;1.20;;;;;;;26.16;60.18;99090.28;5091696;28;20492;-75
2022/09/15 10:13:20;;;;;;;4.40;1.55;;;;;;;26.05;60.43;99101.91;5091786;28;20074;-72
2022/09/15 10:15:53;;;;;;;3.72;1.50;;;;;;;26.19;60.26;99093.41;5091565;28;20127;-73
2022/09/15 10:18:31;;;;;;;5.57;1.60;;;;;;;26.13;60.60;99088.81;5091370;28;20408;-73
2022/09/15 10:21:01;;;;;;;3.50;1.40;;;;;;;25.94;60.97;99084.31;5090958;28;20067;-72
2022/09/15 10:23:31;;;;;;;4.38;1.52;;;;;;;25.98;62.82;99082.00;5091030;28;20119;-72
2022/09/15 10:26:21;;;;;;;4.50;1.40;;;;;;;25.91;62.36;99071.09;5072075;28;20149;-73
2022/09/15 10:29:11;;;;;;;4.22;1.63;;;;;;;26.03;63.06;99057.56;5071964;28;20434;-73
2022/09/15 10:31:40;;;;;;;3.50;1.70;;;;;;;26.37;61.13;99053.53;5073183;28;20361;-72
2022/09/15 10:34:30;;;;;;;3.42;1.20;;;;;;;26.21;58.96;99053.03;5073029;28;20048;-72
2022/09/15 10:37:13;;;;;;;2.95;1.42;;;;;;;26.47;58.57;99053.91;5072948;28;20056;-72
2022/09/15 10:39:51;;;;;;;3.47;1.60;;;;;;;26.42;56.71;99051.81;5091102;28;20044;-73
2022/09/15 10:42:30;;;;;;;3.60;1.30;;;;;;;26.41;57.26;99058.34;5091424;28;20036;-72
2022/09/15 10:45:13;;;;;;;5.13;1.42;;;;;;;26.18;58.22;99067.16;5090819;28;20047;-73
2022/09/15 10:47:56;;;;;;;4.43;1.60;;;;;;;26.52;59.17;99062.25;5091184;28;20361;-73
2022/09/15 10:50:30;;;;;;;3.80;1.50;;;;;;;26.69;56.90;99063.38;5073226;28;20048;-73
2022/09/15 10:53:16;;;;;;;2.38;1.45;;;;;;;26.51;56.35;99061.41;5091004;28;20420;-72
2022/09/15 10:55:56;;;;;;;2.80;1.33;;;;;;;26.75;55.89;99076.16;5091617;28;20051;-74
2022/09/15 10:58:36;;;;;;;2.50;1.30;;;;;;;26.95;55.61;99066.91;5091754;28;20402;-71
2022/09/15 11:01:24;;;;;;;4.53;1.50;;;;;;;26.80;56.18;99068.09;5091307;28;20067;-74
2022/09/15 11:04:08;;;;;;;3.85;1.40;;;;;;;26.85;56.83;99058.38;5073199;28;20142;-72
2022/09/15 11:06:45;;;;;;;2.80;1.30;;;;;;;26.98;56.67;99061.81;5092044;28;20079;-72
2022/09/15 11:09:17;;;;;;;4.95;1.70;;;;;;;26.94;56.94;99060.59;5073373;28;20421;-72
2022/09/15 11:11:59;;;;;;;3.38;1.50;;;;;;;26.99;57.32;99052.53;5073081;28;20128;-73
2022/09/15 11:14:50;;;;;;;;;;;;;;;27.21;56.80;99052.94;5091850;28;20123;-73
2022/09/15 11:17:31;;;;;;;4.30;2.03;;;;;;;27.03;58.42;99048.31;5087758;28;19920;-73
2022/09/15 11:20:28;;;;;;;6.03;1.80;;;;;;;26.96;58.71;99053.00;5093958;28;20123;-73
2022/09/15 11:23:03;;;;;;;3.95;1.50;;;;;;;26.95;59.24;99061.44;5092533;28;20113;-73
2022/09/15 11:25:38;;;;;;;5.20;1.80;;;;;;;26.89;58.83;99065.06;5094937;28;20059;-73
2022/09/15 11:28:16;;;;;;;5.65;1.92;;;;;;;26.45;62.43;99067.81;5094968;28;20114;-73
2022/09/15 11:30:53;;;;;;;3.78;1.83;;;;;;;26.31;66.93;99066.19;5094891;28;20044;-73
2022/09/15 11:33:28;;;;;;;5.68;2.00;;;;;;;26.19;69.02;99063.34;5076471;28;20056;-73
2022/09/15 11:36:04;;;;;;;5.82;1.63;;;;;;;26.03;69.88;99063.88;5076185;28;20135;-72
2022/09/15 11:38:46;;;;;;;5.43;2.03;;;;;;;25.87;71.22;99053.50;5076493;28;20075;-73
2022/09/15 11:41:30;;;;;;;5.80;2.17;;;;;;;25.80;72.06;99058.16;5094955;28;20122;-73
2022/09/15 11:44:11;;;;;;;7.57;2.45;;;;;;;25.64;74.64;99043.91;5094389;28;20044;-73
2022/09/15 11:46:57;;;;;;;5.28;2.25;;;;;;;25.63;76.38;99025.88;5094882;28;20075;-73
2022/09/15 11:49:29;;;;;;;6.68;2.08;;;;;;;25.68;77.05;99017.03;5076678;28;20105;-73
2022/09/15 11:52:03;;;;;;;6.47;2.05;;;;;;;25.62;76.56;99017.91;5075839;28;20048;-73